createdAt,value
2018-07-24T00:01:37.524Z,100361.61
2018-07-24T00:04:08.220Z,100364.41
2018-07-24T00:06:38.958Z,100365.66
2018-07-24T00:09:10.463Z,100365.44
2018-07-24T00:11:41.245Z,100358.17
2018-07-24T00:14:12.069Z,100361.59
2018-07-24T00:16:42.828Z,100360.55
2018-07-24T00:19:13.582Z,100357.39
2018-07-24T00:21:44.384Z,100359.32
2018-07-24T00:24:15.117Z,100353.77
2018-07-24T00:26:45.935Z,100353.55
2018-07-24T00:29:16.659Z,100348.92
2018-07-24T00:31:47.519Z,100348.66
2018-07-24T00:34:18.285Z,100350.41
2018-07-24T00:36:49.035Z,100348.27
2018-07-24T00:39:19.829Z,100350.09
2018-07-24T00:41:50.603Z,100345.87
2018-07-24T00:44:21.355Z,100349.67
2018-07-24T00:46:52.125Z,100348.25
2018-07-24T00:49:22.896Z,100349.36
2018-07-24T00:51:53.689Z,100344.88
2018-07-24T00:54:24.410Z,100345.84
2018-07-24T00:56:55.161Z,100348.66
2018-07-24T00:59:25.890Z,100345.76
2018-07-24T01:01:56.569Z,100345.41
2018-07-24T01:04:27.344Z,100345.67
2018-07-24T01:06:58.139Z,100344.47
2018-07-24T01:09:28.830Z,100339.45
2018-07-24T01:11:59.599Z,100336.30
2018-07-24T01:14:30.371Z,100337.02
2018-07-24T01:17:01.147Z,100331.08
2018-07-24T01:19:31.875Z,100332.45
2018-07-24T01:22:02.690Z,100329.20
2018-07-24T01:24:33.403Z,100331.02
2018-07-24T01:27:04.225Z,100329.36
2018-07-24T01:29:34.988Z,100328.78
2018-07-24T01:32:05.798Z,100328.16
2018-07-24T01:34:36.496Z,100332.19
2018-07-24T01:37:07.476Z,100328.55
2018-07-24T01:39:38.201Z,100328.56
2018-07-24T01:42:09.245Z,100327.63
2018-07-24T01:44:39.967Z,100329.42
2018-07-24T01:47:10.703Z,100333.34
2018-07-24T01:49:41.427Z,100321.30
2018-07-24T01:52:12.192Z,100332.26
2018-07-24T01:54:42.906Z,100330.20
2018-07-24T01:57:13.747Z,100330.34
2018-07-24T01:59:44.423Z,100326.86
2018-07-24T02:02:15.174Z,100325.39
2018-07-24T02:04:46.041Z,100321.52
2018-07-24T02:07:16.815Z,100323.95
2018-07-24T02:09:47.585Z,100324.92
2018-07-24T02:12:18.291Z,100317.27
2018-07-24T02:14:49.027Z,100318.86
2018-07-24T02:17:19.686Z,100321.16
2018-07-24T02:19:50.448Z,100320.20
2018-07-24T02:22:21.128Z,100315.57
2018-07-24T02:24:52.104Z,100313.38
2018-07-24T02:27:22.840Z,100310.36
2018-07-24T02:30:07.875Z,100310.47
2018-07-24T02:32:38.658Z,100307.46
2018-07-24T02:35:09.519Z,100310.52
2018-07-24T02:37:40.192Z,100315.39
2018-07-24T02:40:11.016Z,100312.61
2018-07-24T02:42:41.755Z,100309.94
2018-07-24T02:45:12.585Z,100311.99
2018-07-24T02:47:43.335Z,100311.89
2018-07-24T02:50:14.202Z,100315.80
2018-07-24T02:52:44.587Z,100312.76
2018-07-24T02:55:15.300Z,100308.41
2018-07-24T02:57:46.025Z,100311.31
2018-07-24T03:00:16.770Z,100311.45
2018-07-24T03:02:47.554Z,100314.75
2018-07-24T03:05:18.360Z,100314.52
2018-07-24T03:07:49.035Z,100310.98
2018-07-24T03:10:19.749Z,100308.68
2018-07-24T03:12:50.582Z,100310.73
2018-07-24T03:15:21.256Z,100314.03
2018-07-24T03:17:52.047Z,100306.02
2018-07-24T03:20:22.776Z,100318.90
2018-07-24T03:22:54.009Z,100314.55
2018-07-24T03:25:24.757Z,100312.83
2018-07-24T03:27:55.464Z,100317.36
2018-07-24T03:30:26.212Z,100319.66
2018-07-24T03:32:56.979Z,100312.14
2018-07-24T03:35:27.679Z,100309.95
2018-07-24T03:37:58.441Z,100316.64
2018-07-24T03:40:29.206Z,100315.91
2018-07-24T03:42:59.950Z,100318.45
2018-07-24T03:45:30.704Z,100319.92
2018-07-24T03:48:01.467Z,100317.14
2018-07-24T03:50:32.295Z,100321.16
2018-07-24T03:53:03.017Z,100327.70
2018-07-24T03:55:33.797Z,100324.55
2018-07-24T03:58:04.570Z,100328.77
2018-07-24T04:00:35.295Z,100332.30
2018-07-24T04:03:06.090Z,100334.63
2018-07-24T04:05:36.874Z,100333.63
2018-07-24T04:08:07.899Z,100336.55
2018-07-24T04:10:38.664Z,100332.44
2018-07-24T04:13:09.520Z,100331.55
2018-07-24T04:15:40.333Z,100328.63
2018-07-24T04:18:11.143Z,100332.16
2018-07-24T04:20:41.917Z,100334.94
2018-07-24T04:23:12.631Z,100330.45
2018-07-24T04:25:43.482Z,100330.07
2018-07-24T04:28:14.233Z,100330.93
2018-07-24T04:30:44.997Z,100328.84
2018-07-24T04:33:15.732Z,100326.41
2018-07-24T04:35:46.510Z,100324.69
2018-07-24T04:38:17.261Z,100329.66
2018-07-24T04:40:48.146Z,100321.25
2018-07-24T04:43:19.208Z,100326.56
2018-07-24T04:45:49.936Z,100320.35
2018-07-24T04:48:20.737Z,100326.03
2018-07-24T04:50:51.447Z,100320.67
2018-07-24T04:53:22.246Z,100328.21
2018-07-24T04:55:53.021Z,100326.48
2018-07-24T04:58:23.760Z,100322.80
2018-07-24T05:00:54.740Z,100327.28
2018-07-24T05:03:25.637Z,100322.88
2018-07-24T05:05:56.391Z,100327.70
2018-07-24T05:08:27.180Z,100329.84
2018-07-24T05:10:58.877Z,100333.95
2018-07-24T05:13:29.632Z,100329.28
2018-07-24T05:16:00.459Z,100336.53
2018-07-24T05:18:31.269Z,100331.48
2018-07-24T05:21:02.109Z,100335.34
2018-07-24T05:23:32.933Z,100328.80
2018-07-24T05:26:03.609Z,100335.45
2018-07-24T05:28:34.372Z,100333.30
2018-07-24T05:31:05.243Z,100331.78
2018-07-24T05:33:35.944Z,100329.40
2018-07-24T05:36:06.718Z,100338.59
2018-07-24T05:38:37.443Z,100341.39
2018-07-24T05:41:08.290Z,100332.94
2018-07-24T05:44:41.887Z,100338.87
2018-07-24T05:47:12.638Z,100337.74
2018-07-24T05:49:43.308Z,100335.77
2018-07-24T05:52:13.951Z,100338.08
2018-07-24T05:54:44.574Z,100331.44
2018-07-24T05:57:15.244Z,100334.08
2018-07-24T05:59:45.908Z,100337.59
2018-07-24T06:02:16.599Z,100339.59
2018-07-24T06:04:47.278Z,100337.73
2018-07-24T06:07:18.122Z,100342.25
2018-07-24T06:09:48.910Z,100340.91
2018-07-24T06:12:19.728Z,100344.35
2018-07-24T06:14:50.454Z,100343.64
2018-07-24T06:17:21.287Z,100344.80
2018-07-24T06:19:51.929Z,100345.34
2018-07-24T06:22:22.680Z,100343.82
2018-07-24T06:24:53.367Z,100345.37
2018-07-24T06:27:24.030Z,100343.84
2018-07-24T06:29:54.753Z,100349.23
2018-07-24T06:32:25.492Z,100345.73
2018-07-24T06:34:56.178Z,100342.02
2018-07-24T06:37:26.902Z,100344.01
2018-07-24T06:39:57.623Z,100350.03
2018-07-24T06:42:28.307Z,100342.52
2018-07-24T06:44:59.082Z,100346.86
2018-07-24T06:47:29.831Z,100342.00
2018-07-24T06:50:00.691Z,100340.78
2018-07-24T06:52:31.391Z,100341.73
2018-07-24T06:55:02.121Z,100344.73
2018-07-24T06:57:32.858Z,100341.45
2018-07-24T07:00:03.674Z,100344.64
2018-07-24T07:02:34.316Z,100346.25
2018-07-24T07:05:05.263Z,100349.02
2018-07-24T07:07:35.966Z,100337.30
2018-07-24T07:10:06.801Z,100333.66
2018-07-24T07:12:37.692Z,100337.09
2018-07-24T07:15:09.071Z,100335.94
2018-07-24T07:17:39.710Z,100331.78
2018-07-24T07:20:10.438Z,100336.35
2018-07-24T07:22:41.146Z,100338.92
2018-07-24T07:25:11.840Z,100335.87
2018-07-24T07:27:42.530Z,100336.03
2018-07-24T07:30:13.215Z,100331.31
2018-07-24T07:32:43.912Z,100332.13
2018-07-24T07:35:14.584Z,100327.83
2018-07-24T07:37:45.271Z,100331.64
2018-07-24T07:40:16.008Z,100329.97
2018-07-24T07:42:46.706Z,100321.73
2018-07-24T07:45:17.502Z,100324.69
2018-07-24T07:47:48.088Z,100320.50
2018-07-24T07:50:18.818Z,100321.84
2018-07-24T07:52:49.554Z,100316.67
2018-07-24T07:55:19.915Z,100322.25
2018-07-24T07:57:50.544Z,100323.73
2018-07-24T08:00:21.207Z,100319.75
2018-07-24T08:02:52.203Z,100318.78
2018-07-24T08:05:22.850Z,100314.74
2018-07-24T08:07:53.554Z,100313.80
2018-07-24T08:10:24.284Z,100310.42
2018-07-24T08:12:55.038Z,100315.45
2018-07-24T08:15:25.679Z,100316.10
2018-07-24T08:17:56.450Z,100317.16
2018-07-24T08:20:27.268Z,100307.06
2018-07-24T08:22:57.952Z,100313.55
2018-07-24T08:25:59.864Z,100309.73
2018-07-24T08:28:30.562Z,100306.97
2018-07-24T08:31:01.213Z,100298.72
2018-07-24T08:33:31.939Z,100310.15
2018-07-24T08:36:02.737Z,100301.28
2018-07-24T08:38:33.443Z,100303.46
2018-07-24T08:41:04.205Z,100301.08
2018-07-24T08:43:34.913Z,100302.16
2018-07-24T08:46:05.824Z,100301.34
2018-07-24T08:48:36.932Z,100297.34
2018-07-24T08:51:07.703Z,100292.52
2018-07-24T08:53:38.605Z,100294.00
2018-07-24T08:56:09.168Z,100299.17
2018-07-24T08:58:39.949Z,100298.67
2018-07-24T09:01:10.680Z,100294.13
2018-07-24T09:03:41.484Z,100288.80
2018-07-24T09:06:12.144Z,100292.02
2018-07-24T09:08:42.813Z,100291.18
2018-07-24T09:11:13.506Z,100287.87
2018-07-24T09:13:44.271Z,100291.30
2018-07-24T09:16:14.934Z,100287.32
2018-07-24T09:18:45.649Z,100281.61
2018-07-24T09:21:16.315Z,100280.34
2018-07-24T09:23:47.200Z,100288.53
2018-07-24T09:26:17.897Z,100285.33
2018-07-24T09:28:48.613Z,100289.83
2018-07-24T09:31:19.538Z,100282.78
2018-07-24T09:33:50.239Z,100283.75
2018-07-24T09:36:20.961Z,100277.80
2018-07-24T09:38:51.637Z,100278.15
2018-07-24T09:41:22.356Z,100279.45
2018-07-24T09:43:53.141Z,100278.23
2018-07-24T09:46:23.873Z,100283.61
2018-07-24T09:48:54.627Z,100275.93
2018-07-24T09:51:25.288Z,100279.92
2018-07-24T09:53:55.955Z,100277.90
2018-07-24T09:56:26.719Z,100277.30
2018-07-24T09:58:57.378Z,100285.98
2018-07-24T10:01:31.476Z,100274.98
2018-07-24T10:04:02.862Z,100268.81
2018-07-24T10:06:34.720Z,100272.64
2018-07-24T10:09:08.454Z,100270.06
2018-07-24T10:11:39.166Z,100266.78
2018-07-24T10:14:09.869Z,100259.40
2018-07-24T10:16:40.646Z,100255.42
2018-07-24T10:19:11.256Z,100253.92
2018-07-24T10:21:41.921Z,100257.45
2018-07-24T10:24:12.637Z,100246.47
2018-07-24T10:26:43.360Z,100242.52
2018-07-24T10:29:14.096Z,100245.14
2018-07-24T10:31:44.759Z,100231.89
2018-07-24T10:34:15.464Z,100230.17
2018-07-24T10:36:46.117Z,100234.71
2018-07-24T10:39:16.828Z,100235.13
2018-07-24T10:41:47.592Z,100227.27
2018-07-24T10:44:18.282Z,100223.85
2018-07-24T10:46:48.979Z,100214.29
2018-07-24T10:49:19.711Z,100209.14
2018-07-24T10:51:50.006Z,100214.64
2018-07-24T10:54:20.514Z,100214.53
2018-07-24T10:56:51.184Z,100216.84
2018-07-24T10:59:21.896Z,100215.94
2018-07-24T11:01:52.611Z,100216.33
2018-07-24T11:04:23.267Z,100211.24
2018-07-24T11:06:54.023Z,100207.47
2018-07-24T11:09:24.693Z,100204.48
2018-07-24T11:11:55.387Z,100207.91
2018-07-24T11:14:26.064Z,100199.09
2018-07-24T11:16:56.843Z,100200.92
2018-07-24T11:19:27.172Z,100197.45
2018-07-24T11:21:57.730Z,100196.67
2018-07-24T11:24:28.011Z,100200.92
2018-07-24T11:26:58.580Z,100199.74
2018-07-24T11:29:29.289Z,100197.85
2018-07-24T11:32:00.000Z,100197.47
2018-07-24T11:34:30.723Z,100187.42
2018-07-24T11:37:01.596Z,100189.73
2018-07-24T11:39:32.309Z,100182.22
2018-07-24T11:42:03.053Z,100184.71
2018-07-24T11:44:33.824Z,100176.22
2018-07-24T11:47:04.577Z,100172.72
2018-07-24T11:49:35.330Z,100172.02
2018-07-24T11:52:06.052Z,100169.05
2018-07-24T11:54:36.829Z,100172.36
2018-07-24T11:57:07.602Z,100169.11
2018-07-24T11:59:38.360Z,100161.31
2018-07-24T12:02:09.124Z,100157.17
2018-07-24T12:04:39.855Z,100156.58
2018-07-24T12:07:10.544Z,100152.35
2018-07-24T12:09:41.233Z,100150.02
2018-07-24T12:12:11.920Z,100148.09
2018-07-24T12:14:42.759Z,100150.30
2018-07-24T12:17:13.409Z,100139.26
2018-07-24T12:19:44.139Z,100139.58
2018-07-24T12:22:14.880Z,100142.37
2018-07-24T12:24:45.572Z,100135.41
2018-07-24T12:27:16.404Z,100136.20
2018-07-24T12:29:47.023Z,100127.12
2018-07-24T12:32:17.775Z,100136.91
2018-07-24T12:34:48.484Z,100138.71
2018-07-24T12:37:19.203Z,100142.07
2018-07-24T12:39:49.910Z,100138.44
2018-07-24T12:42:20.214Z,100138.44
2018-07-24T12:44:50.828Z,100129.14
2018-07-24T12:47:21.668Z,100128.25
2018-07-24T12:49:52.481Z,100117.78
2018-07-24T12:52:23.845Z,100117.81
2018-07-24T12:54:54.495Z,100118.58
2018-07-24T12:57:25.219Z,100107.50
2018-07-24T12:59:55.959Z,100102.41
2018-07-24T13:02:26.660Z,100113.73
2018-07-24T13:04:57.465Z,100107.97
2018-07-24T13:07:29.317Z,100106.47
2018-07-24T13:10:00.142Z,100095.98
2018-07-24T13:12:30.931Z,100093.91
2018-07-24T13:15:01.702Z,100097.58
2018-07-24T13:17:32.403Z,100088.36
2018-07-24T13:20:03.253Z,100090.31
2018-07-24T13:22:34.193Z,100091.90
2018-07-24T13:25:05.181Z,100088.14
2018-07-24T13:27:35.931Z,100093.77
2018-07-24T13:30:06.838Z,100087.30
2018-07-24T13:32:37.943Z,100087.26
2018-07-24T13:35:08.716Z,100087.23
2018-07-24T13:37:39.499Z,100092.28
2018-07-24T13:40:10.310Z,100084.14
2018-07-24T13:42:40.961Z,100078.20
2018-07-24T13:45:11.661Z,100085.55
2018-07-24T13:47:42.341Z,100078.55
2018-07-24T13:50:12.986Z,100083.19
2018-07-24T13:52:43.727Z,100087.45
2018-07-24T13:55:14.574Z,100081.37
2018-07-24T13:57:45.370Z,100082.36
2018-07-24T14:00:16.473Z,100070.01
2018-07-24T14:02:47.223Z,100072.58
2018-07-24T14:05:17.952Z,100070.47
2018-07-24T14:07:48.674Z,100067.28
2018-07-24T14:10:19.432Z,100060.28
2018-07-24T14:12:51.008Z,100058.35
2018-07-24T14:15:21.691Z,100062.08
2018-07-24T14:17:52.421Z,100055.22
2018-07-24T14:20:23.090Z,100065.81
2018-07-24T14:22:53.872Z,100056.43
2018-07-24T14:25:24.724Z,100059.41
2018-07-24T14:27:55.544Z,100061.97
2018-07-24T14:30:26.224Z,100058.84
2018-07-24T14:32:56.957Z,100053.61
2018-07-24T14:35:27.776Z,100055.19
2018-07-24T14:37:58.531Z,100055.47
2018-07-24T14:40:29.230Z,100056.80
2018-07-24T14:42:59.866Z,100049.74
2018-07-24T14:45:30.531Z,100046.84
2018-07-24T14:48:01.165Z,100040.73
2018-07-24T14:50:31.862Z,100045.57
2018-07-24T14:53:02.556Z,100040.72
2018-07-24T14:55:33.200Z,100044.64
2018-07-24T14:58:03.908Z,100040.37
2018-07-24T15:00:34.554Z,100035.77
2018-07-24T15:03:05.343Z,100039.94
2018-07-24T15:05:35.976Z,100036.50
2018-07-24T15:08:06.687Z,100042.21
2018-07-24T15:10:37.346Z,100034.54
2018-07-24T15:13:08.055Z,100035.39
2018-07-24T15:15:38.749Z,100035.55
2018-07-24T15:18:09.448Z,100025.28
2018-07-24T15:20:40.125Z,100024.67
2018-07-24T15:23:10.801Z,100018.54
2018-07-24T15:25:41.751Z,100019.18
2018-07-24T15:28:12.539Z,100015.45
2018-07-24T15:30:43.282Z,100022.77
2018-07-24T15:33:16.871Z,100019.14
2018-07-24T15:35:47.586Z,100016.30
2018-07-24T15:38:23.184Z,100015.13
2018-07-24T15:40:53.531Z,100008.57
2018-07-24T15:43:24.083Z,100012.22
2018-07-24T15:45:54.749Z,100014.04
2018-07-24T15:48:25.416Z,100009.91
2018-07-24T15:50:56.104Z,100002.14
2018-07-24T15:53:26.795Z,100006.44
2018-07-24T15:55:57.545Z,100004.33
2018-07-24T15:58:28.203Z,100002.61
2018-07-24T16:00:58.927Z,100002.95
2018-07-24T16:03:29.642Z,100002.92
2018-07-24T16:06:00.336Z,100001.23
2018-07-24T16:08:31.172Z,99999.86
2018-07-24T16:11:01.867Z,100003.31
2018-07-24T16:13:32.521Z,100004.11
2018-07-24T16:16:03.205Z,100006.29
2018-07-24T16:18:33.901Z,100004.95
2018-07-24T16:21:04.637Z,100006.39
2018-07-24T16:23:35.299Z,100000.19
2018-07-24T16:26:06.041Z,100003.88
2018-07-24T16:28:36.970Z,100004.09
2018-07-24T16:31:07.781Z,100006.17
2018-07-24T16:33:38.569Z,100004.27
2018-07-24T16:36:09.252Z,100004.50
2018-07-24T16:38:39.966Z,99996.36
2018-07-24T16:41:10.731Z,99997.55
2018-07-24T16:43:41.543Z,99995.89
2018-07-24T16:46:12.181Z,99993.59
2018-07-24T16:48:42.894Z,99986.97
2018-07-24T16:51:13.546Z,99984.22
2018-07-24T16:53:44.223Z,99986.66
2018-07-24T16:56:16.098Z,99992.80
2018-07-24T16:58:46.722Z,99990.83
2018-07-24T17:01:17.544Z,99987.44
2018-07-24T17:03:48.255Z,99988.34
2018-07-24T17:06:18.908Z,99991.55
2018-07-24T17:08:49.647Z,99985.82
2018-07-24T17:11:20.344Z,99986.91
2018-07-24T17:13:51.090Z,99987.94
2018-07-24T17:16:21.827Z,99982.33
2018-07-24T17:18:52.549Z,99981.27
2018-07-24T17:24:08.308Z,99988.99
2018-07-24T17:26:39.080Z,99984.77
2018-07-24T17:29:09.759Z,99981.09
2018-07-24T17:31:40.482Z,99980.85
2018-07-24T17:34:11.115Z,99982.98
2018-07-24T17:36:41.789Z,99983.05
2018-07-24T17:39:12.539Z,99981.70
2018-07-24T17:41:43.283Z,99986.58
2018-07-24T17:44:13.945Z,99985.61
2018-07-24T17:46:44.689Z,99989.63
2018-07-24T17:49:15.342Z,99985.69
2018-07-24T17:51:46.039Z,99991.16
2018-07-24T17:54:16.815Z,99990.23
2018-07-24T17:56:47.530Z,99993.63
2018-07-24T17:59:18.283Z,99992.94
2018-07-24T18:01:48.922Z,99988.83
2018-07-24T18:04:19.680Z,99991.11
2018-07-24T18:06:50.444Z,100000.31
2018-07-24T18:09:21.211Z,100004.53
2018-07-24T18:11:51.969Z,100000.44
2018-07-24T18:14:22.787Z,100002.55
2018-07-24T18:16:53.465Z,99996.09
2018-07-24T18:19:24.177Z,100011.28
2018-07-24T18:21:54.892Z,100005.52
2018-07-24T18:24:25.594Z,100006.23
2018-07-24T18:26:57.184Z,100010.12
2018-07-24T18:29:27.899Z,100010.39
2018-07-24T18:31:58.889Z,100009.67
2018-07-24T18:34:36.147Z,100009.71
2018-07-24T18:37:08.482Z,100011.62
2018-07-24T18:39:39.357Z,100012.39
2018-07-24T18:42:14.244Z,100007.22
2018-07-24T18:44:44.651Z,100010.69
2018-07-24T18:47:15.490Z,100013.75
2018-07-24T18:49:46.453Z,100018.38
2018-07-24T18:52:17.233Z,100011.17
2018-07-24T18:54:48.028Z,100017.98
2018-07-24T18:57:18.846Z,100019.66
2018-07-24T18:59:49.650Z,100023.00
2018-07-24T19:02:20.733Z,100013.44
2018-07-24T19:04:51.601Z,100019.44
2018-07-24T19:07:22.547Z,100016.16
2018-07-24T19:09:53.403Z,100017.52
2018-07-24T19:12:25.178Z,100018.88
2018-07-24T19:14:55.909Z,100020.45
2018-07-24T19:17:27.635Z,100018.23
2018-07-24T19:19:58.481Z,100017.05
2018-07-24T19:22:29.335Z,100024.87
2018-07-24T19:25:00.603Z,100022.86
2018-07-24T19:27:37.592Z,100026.29
2018-07-24T19:30:14.167Z,100028.98
2018-07-24T19:32:44.915Z,100028.63
2018-07-24T19:35:15.681Z,100035.11
2018-07-24T19:37:46.486Z,100037.47
2018-07-24T19:40:17.404Z,100036.05
2018-07-24T19:42:48.207Z,100036.86
2018-07-24T19:45:18.995Z,100037.64
2018-07-24T19:47:49.785Z,100039.38
2018-07-24T19:50:20.556Z,100042.06
2018-07-24T19:52:51.289Z,100035.31
2018-07-24T19:55:22.081Z,100044.95
2018-07-24T19:57:52.868Z,100048.83
2018-07-24T20:00:23.700Z,100046.27
2018-07-24T20:02:54.441Z,100048.30
2018-07-24T20:05:25.607Z,100049.47
2018-07-24T20:07:56.344Z,100054.51
2018-07-24T20:10:27.463Z,100054.96
2018-07-24T20:12:58.255Z,100056.26
2018-07-24T20:15:28.962Z,100058.06
2018-07-24T20:18:00.025Z,100062.38
2018-07-24T20:20:31.076Z,100061.59
2018-07-24T20:23:01.966Z,100060.31
2018-07-24T20:25:32.529Z,100058.38
2018-07-24T20:28:03.428Z,100063.87
2018-07-24T20:30:34.053Z,100062.23
2018-07-24T20:33:04.803Z,100059.59
2018-07-24T20:35:35.492Z,100058.16
2018-07-24T20:38:06.163Z,100060.59
2018-07-24T20:40:36.875Z,100055.95
2018-07-24T20:43:07.657Z,100059.94
2018-07-24T20:45:38.338Z,100059.80
2018-07-24T20:48:09.028Z,100060.91
2018-07-24T20:50:39.730Z,100064.18
2018-07-24T20:53:10.496Z,100065.25
2018-07-24T20:55:41.129Z,100060.73
2018-07-24T20:58:11.768Z,100056.53
2018-07-24T21:00:42.417Z,100058.39
2018-07-24T21:03:13.133Z,100054.52
2018-07-24T21:05:43.972Z,100057.45
2018-07-24T21:08:14.636Z,100055.00
2018-07-24T21:10:45.333Z,100056.57
2018-07-24T21:13:15.968Z,100058.48
2018-07-24T21:15:46.641Z,100062.30
2018-07-24T21:18:17.343Z,100062.31
2018-07-24T21:20:48.100Z,100063.17
2018-07-24T21:23:18.868Z,100057.61
2018-07-24T21:25:49.574Z,100060.32
2018-07-24T21:28:20.307Z,100060.32
2018-07-24T21:30:51.032Z,100060.68
2018-07-24T21:33:21.784Z,100060.92
2018-07-24T21:35:52.575Z,100061.82
2018-07-24T21:38:23.299Z,100061.84
2018-07-24T21:40:54.028Z,100064.28
2018-07-24T21:43:24.705Z,100066.19
2018-07-24T21:45:55.410Z,100059.46
2018-07-24T21:48:26.207Z,100062.18
2018-07-24T21:50:56.998Z,100071.50
2018-07-24T21:53:27.750Z,100073.25
2018-07-24T21:55:58.422Z,100070.89
2018-07-24T21:58:29.131Z,100070.63
2018-07-24T22:01:05.039Z,100073.48
2018-07-24T22:03:35.769Z,100080.10
2018-07-24T22:06:06.576Z,100083.70
2018-07-24T22:08:37.597Z,100080.48
2018-07-24T22:11:08.381Z,100081.19
2018-07-24T22:13:39.121Z,100082.86
2018-07-24T22:16:09.884Z,100085.75
2018-07-24T22:18:40.587Z,100083.90
2018-07-24T22:21:11.343Z,100086.84
2018-07-24T22:23:42.034Z,100094.64
2018-07-24T22:26:12.784Z,100090.47
2018-07-24T22:28:43.578Z,100092.54
2018-07-24T22:31:14.288Z,100098.98
2018-07-24T22:33:45.067Z,100093.77
2018-07-24T22:36:15.787Z,100093.48
2018-07-24T22:38:46.511Z,100099.77
2018-07-24T22:41:17.274Z,100102.00
2018-07-24T22:43:47.943Z,100097.13
2018-07-24T22:46:18.754Z,100103.36
2018-07-24T22:48:49.417Z,100104.58
2018-07-24T22:51:20.167Z,100101.05
2018-07-24T22:53:50.912Z,100104.12
2018-07-24T22:56:21.600Z,100103.98
2018-07-24T22:58:52.365Z,100111.11
2018-07-24T23:01:23.122Z,100111.27
2018-07-24T23:03:53.848Z,100109.09
2018-07-24T23:06:24.532Z,100112.98
2018-07-24T23:08:55.223Z,100114.20
2018-07-24T23:11:25.940Z,100116.56
2018-07-24T23:13:56.584Z,100106.28
2018-07-24T23:16:27.335Z,100112.02
2018-07-24T23:18:58.044Z,100114.05
2018-07-24T23:21:28.749Z,100118.25
2018-07-24T23:23:59.508Z,100120.28
2018-07-24T23:26:30.198Z,100114.90
2018-07-24T23:29:00.880Z,100114.87
2018-07-24T23:31:31.609Z,100113.38
2018-07-24T23:34:02.303Z,100116.27
2018-07-24T23:36:33.035Z,100114.76
2018-07-24T23:39:06.479Z,100109.70
2018-07-24T23:41:37.201Z,100108.69
2018-07-24T23:44:08.272Z,100108.70
2018-07-24T23:46:39.521Z,100103.64
2018-07-24T23:49:10.247Z,100108.19
2018-07-24T23:51:40.888Z,100114.55
2018-07-24T23:54:11.594Z,100113.20
2018-07-24T23:56:42.244Z,100113.56
2018-07-24T23:59:12.927Z,100112.04
